sensor_id;sensor_type;location;lat;lon;timestamp;pressure;altitude;pressure_sealevel;temperature;humidity
74474;BME280;62922;-6.168;106.796;2022-11-21T00:01:52;100769.97;;;30.93;57.92
74474;BME280;62922;-6.168;106.796;2022-11-21T00:04:18;100766.84;;;30.95;58.04
74474;BME280;62922;-6.168;106.796;2022-11-21T00:06:44;100769.31;;;30.96;58.03
74474;BME280;62922;-6.168;106.796;2022-11-21T00:09:09;100765.47;;;31.01;57.97
74474;BME280;62922;-6.168;106.796;2022-11-21T00:11:35;100766.31;;;31.01;57.78
74474;BME280;62922;-6.168;106.796;2022-11-21T00:14:01;100758.69;;;31.02;57.94
74474;BME280;62922;-6.168;106.796;2022-11-21T00:16:27;100752.72;;;31.03;57.94
74474;BME280;62922;-6.168;106.796;2022-11-21T00:18:53;100759.19;;;31.04;58.05
74474;BME280;62922;-6.168;106.796;2022-11-21T00:21:19;100762.50;;;31.06;58.10
74474;BME280;62922;-6.168;106.796;2022-11-21T00:23:45;100771.44;;;31.08;58.02
74474;BME280;62922;-6.168;106.796;2022-11-21T00:26:12;100775.06;;;31.08;58.03
74474;BME280;62922;-6.168;106.796;2022-11-21T00:28:38;100794.31;;;31.06;57.85
74474;BME280;62922;-6.168;106.796;2022-11-21T00:31:04;100787.72;;;31.02;58.06
74474;BME280;62922;-6.168;106.796;2022-11-21T00:33:30;100797.16;;;30.98;58.42
74474;BME280;62922;-6.168;106.796;2022-11-21T00:35:56;100799.13;;;30.97;58.24
74474;BME280;62922;-6.168;106.796;2022-11-21T00:38:26;100797.16;;;30.98;58.44
74474;BME280;62922;-6.168;106.796;2022-11-21T00:40:51;100805.09;;;30.96;58.68
74474;BME280;62922;-6.168;106.796;2022-11-21T00:43:17;100813.38;;;31.01;58.31
74474;BME280;62922;-6.168;106.796;2022-11-21T00:45:43;100815.91;;;31.02;58.30
74474;BME280;62922;-6.168;106.796;2022-11-21T00:48:09;100824.50;;;31.06;58.68
74474;BME280;62922;-6.168;106.796;2022-11-21T00:50:35;100830.94;;;31.06;58.61
74474;BME280;62922;-6.168;106.796;2022-11-21T00:53:01;100819.84;;;31.10;58.65
74474;BME280;62922;-6.168;106.796;2022-11-21T00:55:26;100827.47;;;31.09;58.64
74474;BME280;62922;-6.168;106.796;2022-11-21T00:57:52;100837.25;;;31.12;58.57
74474;BME280;62922;-6.168;106.796;2022-11-21T01:00:18;100833.47;;;31.08;58.50
74474;BME280;62922;-6.168;106.796;2022-11-21T01:02:44;100833.47;;;31.08;58.47
74474;BME280;62922;-6.168;106.796;2022-11-21T01:05:10;100824.66;;;31.09;58.49
74474;BME280;62922;-6.168;106.796;2022-11-21T01:07:36;100829.13;;;31.10;58.54
74474;BME280;62922;-6.168;106.796;2022-11-21T01:10:02;100823.84;;;31.09;58.37
74474;BME280;62922;-6.168;106.796;2022-11-21T01:12:28;100838.91;;;31.04;58.54
74474;BME280;62922;-6.168;106.796;2022-11-21T01:14:53;100832.47;;;31.04;58.49
74474;BME280;62922;-6.168;106.796;2022-11-21T01:17:19;100829.00;;;30.98;58.49
74474;BME280;62922;-6.168;106.796;2022-11-21T01:19:45;100826.19;;;30.98;58.36
74474;BME280;62922;-6.168;106.796;2022-11-21T01:22:11;100826.19;;;30.98;58.94
74474;BME280;62922;-6.168;106.796;2022-11-21T01:24:37;100819.84;;;31.01;58.30
74474;BME280;62922;-6.168;106.796;2022-11-21T01:27:03;100820.69;;;31.02;58.36
74474;BME280;62922;-6.168;106.796;2022-11-21T01:29:29;100825.16;;;31.03;58.27
74474;BME280;62922;-6.168;106.796;2022-11-21T01:31:55;100821.34;;;30.99;58.61
74474;BME280;62922;-6.168;106.796;2022-11-21T01:34:20;100821.34;;;30.99;59.07
74474;BME280;62922;-6.168;106.796;2022-11-21T01:36:46;100830.66;;;31.08;58.88
74474;BME280;62922;-6.168;106.796;2022-11-21T01:39:12;100834.44;;;31.12;58.94
74474;BME280;62922;-6.168;106.796;2022-11-21T01:41:42;100834.75;;;31.19;58.90
74474;BME280;62922;-6.168;106.796;2022-11-21T01:44:13;100839.06;;;31.16;58.74
74474;BME280;62922;-6.168;106.796;2022-11-21T01:46:42;100834.75;;;31.10;58.72
74474;BME280;62922;-6.168;106.796;2022-11-21T01:49:10;100828.94;;;31.15;58.59
74474;BME280;62922;-6.168;106.796;2022-11-21T01:51:41;100829.28;;;31.14;58.55
74474;BME280;62922;-6.168;106.796;2022-11-21T01:54:10;100820.97;;;31.17;58.46
74474;BME280;62922;-6.168;106.796;2022-11-21T01:59:06;100822.81;;;31.22;58.28
74474;BME280;62922;-6.168;106.796;2022-11-21T02:01:33;100821.00;;;31.26;58.11
74474;BME280;62922;-6.168;106.796;2022-11-21T02:03:59;100813.03;;;31.36;58.22
74474;BME280;62922;-6.168;106.796;2022-11-21T02:06:29;100817.00;;;31.35;58.08
74474;BME280;62922;-6.168;106.796;2022-11-21T02:08:56;100815.97;;;31.48;57.91
74474;BME280;62922;-6.168;106.796;2022-11-21T02:11:41;100818.13;;;31.51;57.68
74474;BME280;62922;-6.168;106.796;2022-11-21T02:14:09;100815.75;;;31.62;57.41
74474;BME280;62922;-6.168;106.796;2022-11-21T02:16:36;100800.63;;;31.67;57.10
74474;BME280;62922;-6.168;106.796;2022-11-21T02:19:02;100803.28;;;31.72;56.59
74474;BME280;62922;-6.168;106.796;2022-11-21T02:26:27;100802.38;;;31.88;55.52
74474;BME280;62922;-6.168;106.796;2022-11-21T02:28:53;100797.03;;;31.87;55.49
74474;BME280;62922;-6.168;106.796;2022-11-21T02:31:19;100806.66;;;31.94;55.26
74474;BME280;62922;-6.168;106.796;2022-11-21T02:33:45;100800.34;;;31.97;55.71
74474;BME280;62922;-6.168;106.796;2022-11-21T02:38:39;100798.44;;;32.10;54.02
74474;BME280;62922;-6.168;106.796;2022-11-21T02:46:04;100792.38;;;32.20;54.37
74474;BME280;62922;-6.168;106.796;2022-11-21T02:48:30;100791.03;;;32.26;53.18
74474;BME280;62922;-6.168;106.796;2022-11-21T02:50:59;100783.75;;;32.25;52.69
74474;BME280;62922;-6.168;106.796;2022-11-21T02:53:25;100784.69;;;32.29;52.34
74474;BME280;62922;-6.168;106.796;2022-11-21T02:55:51;100782.47;;;32.34;51.90
74474;BME280;62922;-6.168;106.796;2022-11-21T02:58:16;100766.50;;;32.38;52.28
74474;BME280;62922;-6.168;106.796;2022-11-21T03:00:43;100775.47;;;32.40;51.85
74474;BME280;62922;-6.168;106.796;2022-11-21T03:03:09;100773.06;;;32.51;52.10
74474;BME280;62922;-6.168;106.796;2022-11-21T03:05:36;100762.25;;;32.53;51.92
74474;BME280;62922;-6.168;106.796;2022-11-21T03:08:02;100756.47;;;32.49;52.16
74474;BME280;62922;-6.168;106.796;2022-11-21T03:10:29;100757.56;;;32.57;51.88
74474;BME280;62922;-6.168;106.796;2022-11-21T03:12:57;100750.59;;;32.54;51.53
74474;BME280;62922;-6.168;106.796;2022-11-21T03:15:26;100756.75;;;32.56;51.69
74474;BME280;62922;-6.168;106.796;2022-11-21T03:17:53;100751.22;;;32.60;51.80
74474;BME280;62922;-6.168;106.796;2022-11-21T03:20:19;100757.34;;;32.62;51.21
74474;BME280;62922;-6.168;106.796;2022-11-21T03:22:45;100755.50;;;32.66;50.66
74474;BME280;62922;-6.168;106.796;2022-11-21T03:25:11;100739.28;;;32.75;50.66
74474;BME280;62922;-6.168;106.796;2022-11-21T03:27:36;100743.66;;;32.73;49.83
74474;BME280;62922;-6.168;106.796;2022-11-21T03:30:02;100736.94;;;32.77;50.08
74474;BME280;62922;-6.168;106.796;2022-11-21T03:32:28;100732.94;;;32.78;50.17
74474;BME280;62922;-6.168;106.796;2022-11-21T03:34:54;100730.94;;;32.79;49.23
74474;BME280;62922;-6.168;106.796;2022-11-21T03:37:20;100735.91;;;32.82;48.71
74474;BME280;62922;-6.168;106.796;2022-11-21T03:39:48;100728.66;;;32.93;50.03
74474;BME280;62922;-6.168;106.796;2022-11-21T03:42:14;100731.97;;;32.95;49.61
74474;BME280;62922;-6.168;106.796;2022-11-21T03:44:40;100730.78;;;32.96;49.01
74474;BME280;62922;-6.168;106.796;2022-11-21T03:47:06;100739.88;;;33.01;48.94
74474;BME280;62922;-6.168;106.796;2022-11-21T03:49:32;100721.25;;;33.00;49.34
74474;BME280;62922;-6.168;106.796;2022-11-21T03:51:58;100719.31;;;33.13;49.49
74474;BME280;62922;-6.168;106.796;2022-11-21T03:54:24;100716.00;;;33.11;49.02
74474;BME280;62922;-6.168;106.796;2022-11-21T03:56:49;100709.50;;;33.22;49.30
74474;BME280;62922;-6.168;106.796;2022-11-21T03:59:18;100708.47;;;33.27;48.83
74474;BME280;62922;-6.168;106.796;2022-11-21T04:01:44;100701.16;;;33.26;49.54
74474;BME280;62922;-6.168;106.796;2022-11-21T04:04:12;100704.56;;;33.31;48.87
74474;BME280;62922;-6.168;106.796;2022-11-21T04:06:38;100693.06;;;33.36;48.60
74474;BME280;62922;-6.168;106.796;2022-11-21T04:09:04;100706.00;;;33.37;48.67
74474;BME280;62922;-6.168;106.796;2022-11-21T04:11:30;100696.13;;;33.43;47.92
74474;BME280;62922;-6.168;106.796;2022-11-21T04:13:56;100694.13;;;33.44;47.99
74474;BME280;62922;-6.168;106.796;2022-11-21T04:16:24;100691.75;;;33.46;47.91
74474;BME280;62922;-6.168;106.796;2022-11-21T04:18:50;100680.78;;;33.44;47.72
74474;BME280;62922;-6.168;106.796;2022-11-21T04:21:16;100682.13;;;33.47;47.55
74474;BME280;62922;-6.168;106.796;2022-11-21T04:23:41;100676.06;;;33.36;47.79
74474;BME280;62922;-6.168;106.796;2022-11-21T04:26:07;100673.16;;;33.45;48.43
74474;BME280;62922;-6.168;106.796;2022-11-21T04:28:36;100656.28;;;33.48;48.48
74474;BME280;62922;-6.168;106.796;2022-11-21T04:31:03;100675.25;;;33.48;48.55
74474;BME280;62922;-6.168;106.796;2022-11-21T04:33:29;100670.06;;;33.50;47.89
74474;BME280;62922;-6.168;106.796;2022-11-21T04:35:55;100657.81;;;33.58;48.28
74474;BME280;62922;-6.168;106.796;2022-11-21T04:38:21;100660.75;;;33.62;48.56
74474;BME280;62922;-6.168;106.796;2022-11-21T04:40:47;100665.81;;;33.68;48.10
74474;BME280;62922;-6.168;106.796;2022-11-21T04:43:13;100659.09;;;33.73;48.82
74474;BME280;62922;-6.168;106.796;2022-11-21T04:45:38;100653.34;;;33.69;48.67
74474;BME280;62922;-6.168;106.796;2022-11-21T04:48:04;100661.56;;;33.74;49.29
74474;BME280;62922;-6.168;106.796;2022-11-21T04:50:30;100651.66;;;33.68;49.11
74474;BME280;62922;-6.168;106.796;2022-11-21T04:52:56;100649.56;;;33.65;48.64
74474;BME280;62922;-6.168;106.796;2022-11-21T04:55:23;100634.34;;;33.70;49.54
74474;BME280;62922;-6.168;106.796;2022-11-21T04:57:52;100639.88;;;33.66;49.14
74474;BME280;62922;-6.168;106.796;2022-11-21T05:00:18;100636.00;;;33.71;49.12
74474;BME280;62922;-6.168;106.796;2022-11-21T05:02:44;100637.97;;;33.82;48.68
74474;BME280;62922;-6.168;106.796;2022-11-21T05:05:12;100638.66;;;33.91;48.69
74474;BME280;62922;-6.168;106.796;2022-11-21T05:07:38;100628.13;;;33.92;48.61
74474;BME280;62922;-6.168;106.796;2022-11-21T05:10:04;100623.31;;;33.92;48.34
74474;BME280;62922;-6.168;106.796;2022-11-21T05:12:30;100630.41;;;33.98;48.47
74474;BME280;62922;-6.168;106.796;2022-11-21T05:14:59;100617.66;;;34.04;49.98
74474;BME280;62922;-6.168;106.796;2022-11-21T05:17:26;100605.75;;;33.99;49.41
74474;BME280;62922;-6.168;106.796;2022-11-21T05:19:52;100601.84;;;34.03;48.45
74474;BME280;62922;-6.168;106.796;2022-11-21T05:22:18;100607.59;;;34.07;48.36
74474;BME280;62922;-6.168;106.796;2022-11-21T05:24:44;100596.38;;;34.10;48.47
74474;BME280;62922;-6.168;106.796;2022-11-21T05:27:09;100594.47;;;34.14;47.19
74474;BME280;62922;-6.168;106.796;2022-11-21T05:29:38;100589.75;;;34.18;47.11
74474;BME280;62922;-6.168;106.796;2022-11-21T05:32:04;100592.41;;;34.27;46.08
74474;BME280;62922;-6.168;106.796;2022-11-21T05:34:30;100589.06;;;34.37;45.83
74474;BME280;62922;-6.168;106.796;2022-11-21T05:36:58;100586.78;;;34.42;47.54
74474;BME280;62922;-6.168;106.796;2022-11-21T05:39:24;100578.66;;;34.41;47.50
74474;BME280;62922;-6.168;106.796;2022-11-21T05:41:50;100577.09;;;34.43;46.41
74474;BME280;62922;-6.168;106.796;2022-11-21T05:44:16;100581.34;;;34.50;46.33
74474;BME280;62922;-6.168;106.796;2022-11-21T05:46:42;100578.44;;;34.62;45.50
74474;BME280;62922;-6.168;106.796;2022-11-21T05:49:10;100571.22;;;34.64;45.10
74474;BME280;62922;-6.168;106.796;2022-11-21T05:51:36;100570.09;;;34.69;45.35
74474;BME280;62922;-6.168;106.796;2022-11-21T05:54:02;100575.53;;;34.74;44.86
74474;BME280;62922;-6.168;106.796;2022-11-21T05:56:28;100561.81;;;34.76;44.92
74474;BME280;62922;-6.168;106.796;2022-11-21T05:58:55;100567.81;;;34.74;45.22
74474;BME280;62922;-6.168;106.796;2022-11-21T06:01:21;100558.22;;;34.79;45.15
74474;BME280;62922;-6.168;106.796;2022-11-21T06:03:50;100554.56;;;34.78;44.81
74474;BME280;62922;-6.168;106.796;2022-11-21T06:06:15;100543.88;;;34.87;44.72
74474;BME280;62922;-6.168;106.796;2022-11-21T06:08:43;100546.69;;;34.87;45.08
74474;BME280;62922;-6.168;106.796;2022-11-21T06:11:10;100544.31;;;34.89;44.98
74474;BME280;62922;-6.168;106.796;2022-11-21T06:13:36;100533.19;;;34.96;44.95
74474;BME280;62922;-6.168;106.796;2022-11-21T06:16:03;100536.00;;;34.96;44.50
74474;BME280;62922;-6.168;106.796;2022-11-21T06:18:31;100534.38;;;34.95;43.69
74474;BME280;62922;-6.168;106.796;2022-11-21T06:21:01;100529.78;;;35.06;43.57
74474;BME280;62922;-6.168;106.796;2022-11-21T06:23:27;100532.25;;;35.08;43.07
74474;BME280;62922;-6.168;106.796;2022-11-21T06:25:55;100528.44;;;35.00;43.00
74474;BME280;62922;-6.168;106.796;2022-11-21T06:28:21;100542.22;;;35.02;42.37
74474;BME280;62922;-6.168;106.796;2022-11-21T06:30:47;100527.78;;;35.07;42.88
74474;BME280;62922;-6.168;106.796;2022-11-21T06:33:16;100516.16;;;35.12;42.36
74474;BME280;62922;-6.168;106.796;2022-11-21T06:35:42;100512.03;;;35.09;42.61
74474;BME280;62922;-6.168;106.796;2022-11-21T06:38:08;100521.81;;;35.12;42.92
74474;BME280;62922;-6.168;106.796;2022-11-21T06:40:34;100507.94;;;35.07;41.85
74474;BME280;62922;-6.168;106.796;2022-11-21T06:43:00;100505.63;;;35.12;41.96
74474;BME280;62922;-6.168;106.796;2022-11-21T06:45:26;100509.66;;;35.11;42.21
74474;BME280;62922;-6.168;106.796;2022-11-21T06:47:52;100503.59;;;35.13;41.79
74474;BME280;62922;-6.168;106.796;2022-11-21T06:50:18;100505.25;;;35.14;41.49
74474;BME280;62922;-6.168;106.796;2022-11-21T06:52:43;100507.81;;;35.19;41.68
74474;BME280;62922;-6.168;106.796;2022-11-21T06:55:09;100498.53;;;35.22;41.93
74474;BME280;62922;-6.168;106.796;2022-11-21T06:57:36;100502.22;;;35.22;41.73
74474;BME280;62922;-6.168;106.796;2022-11-21T07:00:02;100504.59;;;35.20;41.80
74474;BME280;62922;-6.168;106.796;2022-11-21T07:02:29;100492.59;;;35.27;41.50
74474;BME280;62922;-6.168;106.796;2022-11-21T07:04:55;100482.50;;;35.29;41.96
74474;BME280;62922;-6.168;106.796;2022-11-21T07:07:21;100473.19;;;35.29;41.50
74474;BME280;62922;-6.168;106.796;2022-11-21T07:09:47;100469.22;;;35.33;41.88
74474;BME280;62922;-6.168;106.796;2022-11-21T07:12:15;100463.56;;;35.33;42.03
74474;BME280;62922;-6.168;106.796;2022-11-21T07:14:43;100467.53;;;35.29;42.35
74474;BME280;62922;-6.168;106.796;2022-11-21T07:17:12;100453.69;;;35.27;42.06
74474;BME280;62922;-6.168;106.796;2022-11-21T07:19:39;100443.25;;;35.31;42.48
74474;BME280;62922;-6.168;106.796;2022-11-21T07:22:05;100442.06;;;35.32;42.80
74474;BME280;62922;-6.168;106.796;2022-11-21T07:24:31;100432.34;;;35.33;42.95
74474;BME280;62922;-6.168;106.796;2022-11-21T07:26:57;100435.19;;;35.33;43.14
74474;BME280;62922;-6.168;106.796;2022-11-21T07:29:25;100412.56;;;35.37;42.74
74474;BME280;62922;-6.168;106.796;2022-11-21T07:31:51;100427.56;;;35.37;42.93
74474;BME280;62922;-6.168;106.796;2022-11-21T07:34:17;100421.13;;;35.40;42.91
74474;BME280;62922;-6.168;106.796;2022-11-21T07:36:43;100422.06;;;35.45;42.39
74474;BME280;62922;-6.168;106.796;2022-11-21T07:39:09;100425.75;;;35.45;42.21
74474;BME280;62922;-6.168;106.796;2022-11-21T07:41:35;100418.47;;;35.48;42.58
74474;BME280;62922;-6.168;106.796;2022-11-21T07:44:01;100421.69;;;35.46;42.16
74474;BME280;62922;-6.168;106.796;2022-11-21T07:46:26;100423.81;;;35.49;42.28
74474;BME280;62922;-6.168;106.796;2022-11-21T07:48:52;100416.03;;;35.46;42.64
74474;BME280;62922;-6.168;106.796;2022-11-21T07:51:18;100418.47;;;35.48;42.86
74474;BME280;62922;-6.168;106.796;2022-11-21T07:53:44;100420.06;;;35.45;42.76
74474;BME280;62922;-6.168;106.796;2022-11-21T07:56:10;100419.63;;;35.43;42.75
74474;BME280;62922;-6.168;106.796;2022-11-21T07:58:36;100429.31;;;35.42;43.02
74474;BME280;62922;-6.168;106.796;2022-11-21T08:01:02;100420.69;;;35.38;42.92
74474;BME280;62922;-6.168;106.796;2022-11-21T08:03:30;100416.78;;;35.43;42.84
74474;BME280;62922;-6.168;106.796;2022-11-21T08:05:55;100415.63;;;35.48;42.96
74474;BME280;62922;-6.168;106.796;2022-11-21T08:08:21;100417.69;;;35.47;43.13
74474;BME280;62922;-6.168;106.796;2022-11-21T08:10:47;100418.84;;;35.46;42.86
74474;BME280;62922;-6.168;106.796;2022-11-21T08:13:13;100410.28;;;35.42;43.39
74474;BME280;62922;-6.168;106.796;2022-11-21T08:15:42;100420.53;;;35.31;44.31
74474;BME280;62922;-6.168;106.796;2022-11-21T08:18:08;100414.94;;;35.35;43.98
74474;BME280;62922;-6.168;106.796;2022-11-21T08:20:35;100419.44;;;35.36;44.52
74474;BME280;62922;-6.168;106.796;2022-11-21T08:23:01;100421.38;;;35.32;44.44
74474;BME280;62922;-6.168;106.796;2022-11-21T08:25:27;100417.50;;;35.40;44.64
74474;BME280;62922;-6.168;106.796;2022-11-21T08:27:55;100420.53;;;35.31;44.33
74474;BME280;62922;-6.168;106.796;2022-11-21T08:30:24;100433.63;;;35.36;44.61
74474;BME280;62922;-6.168;106.796;2022-11-21T08:32:50;100427.19;;;35.39;44.51
74474;BME280;62922;-6.168;106.796;2022-11-21T08:35:16;100428.75;;;35.36;44.42
74474;BME280;62922;-6.168;106.796;2022-11-21T08:37:42;100434.34;;;35.33;44.27
74474;BME280;62922;-6.168;106.796;2022-11-21T08:40:08;100429.97;;;35.35;44.59
74474;BME280;62922;-6.168;106.796;2022-11-21T08:42:34;100441.69;;;35.34;44.24
74474;BME280;62922;-6.168;106.796;2022-11-21T08:45:00;100440.41;;;35.31;44.36
74474;BME280;62922;-6.168;106.796;2022-11-21T08:47:25;100447.66;;;35.29;43.67
74474;BME280;62922;-6.168;106.796;2022-11-21T08:49:51;100442.34;;;35.27;43.80
74474;BME280;62922;-6.168;106.796;2022-11-21T08:52:17;100448.47;;;35.29;43.33
74474;BME280;62922;-6.168;106.796;2022-11-21T08:54:43;100450.06;;;35.27;43.48
74474;BME280;62922;-6.168;106.796;2022-11-21T08:57:09;100449.53;;;35.21;43.36
74474;BME280;62922;-6.168;106.796;2022-11-21T08:59:35;100452.50;;;35.28;43.78
74474;BME280;62922;-6.168;106.796;2022-11-21T09:02:01;100450.50;;;35.29;43.21
74474;BME280;62922;-6.168;106.796;2022-11-21T09:04:27;100456.91;;;35.26;44.05
74474;BME280;62922;-6.168;106.796;2022-11-21T09:06:53;100447.13;;;35.23;43.27
74474;BME280;62922;-6.168;106.796;2022-11-21T09:09:19;100436.66;;;35.27;43.12
74474;BME280;62922;-6.168;106.796;2022-11-21T09:11:44;100448.84;;;35.28;43.19
74474;BME280;62922;-6.168;106.796;2022-11-21T09:14:10;100432.13;;;35.23;42.62
74474;BME280;62922;-6.168;106.796;2022-11-21T09:16:39;100436.59;;;35.24;43.18
74474;BME280;62922;-6.168;106.796;2022-11-21T09:19:07;100446.38;;;35.26;42.87
74474;BME280;62922;-6.168;106.796;2022-11-21T09:21:33;100437.41;;;35.24;42.66
74474;BME280;62922;-6.168;106.796;2022-11-21T09:23:59;100435.88;;;35.27;43.15
74474;BME280;62922;-6.168;106.796;2022-11-21T09:26:25;100434.13;;;35.22;42.76
74474;BME280;62922;-6.168;106.796;2022-11-21T09:28:51;100438.97;;;35.22;42.99
74474;BME280;62922;-6.168;106.796;2022-11-21T09:31:19;100441.81;;;35.22;42.63
74474;BME280;62922;-6.168;106.796;2022-11-21T09:33:45;100440.56;;;35.19;43.01
74474;BME280;62922;-6.168;106.796;2022-11-21T09:36:13;100448.69;;;35.21;43.56
74474;BME280;62922;-6.168;106.796;2022-11-21T09:38:39;100456.22;;;35.13;43.34
74474;BME280;62922;-6.168;106.796;2022-11-21T09:41:09;100471.75;;;35.19;43.38
74474;BME280;62922;-6.168;106.796;2022-11-21T09:44:35;100477.81;;;35.18;43.23
74474;BME280;62922;-6.168;106.796;2022-11-21T09:46:44;100492.78;;;35.18;43.68
74474;BME280;62922;-6.168;106.796;2022-11-21T09:49:11;100496.47;;;35.19;43.50
74474;BME280;62922;-6.168;106.796;2022-11-21T09:51:38;100507.81;;;35.19;44.02
74474;BME280;62922;-6.168;106.796;2022-11-21T09:54:11;100510.19;;;35.17;43.56
74474;BME280;62922;-6.168;106.796;2022-11-21T09:56:40;100517.97;;;35.20;43.17
74474;BME280;62922;-6.168;106.796;2022-11-21T10:01:35;100515.03;;;35.16;43.66
74474;BME280;62922;-6.168;106.796;2022-11-21T10:04:02;100517.78;;;35.13;43.29
74474;BME280;62922;-6.168;106.796;2022-11-21T10:06:31;100532.19;;;35.04;44.31
74474;BME280;62922;-6.168;106.796;2022-11-21T10:16:30;100545.44;;;35.00;43.73
74474;BME280;62922;-6.168;106.796;2022-11-21T10:21:47;100560.00;;;34.99;44.08
74474;BME280;62922;-6.168;106.796;2022-11-21T10:26:45;100564.75;;;34.95;43.91
74474;BME280;62922;-6.168;106.796;2022-11-21T10:31:43;100580.81;;;34.91;44.46
74474;BME280;62922;-6.168;106.796;2022-11-21T10:34:23;100582.75;;;34.87;44.29
74474;BME280;62922;-6.168;106.796;2022-11-21T10:36:51;100589.50;;;34.82;44.41
74474;BME280;62922;-6.168;106.796;2022-11-21T10:39:21;100591.50;;;34.82;44.34
74474;BME280;62922;-6.168;106.796;2022-11-21T10:41:55;100586.50;;;34.75;44.58
74474;BME280;62922;-6.168;106.796;2022-11-21T10:44:27;100594.63;;;34.77;44.88
74474;BME280;62922;-6.168;106.796;2022-11-21T10:46:56;100589.94;;;34.69;44.96
74474;BME280;62922;-6.168;106.796;2022-11-21T10:49:25;100589.16;;;34.68;44.71
74474;BME280;62922;-6.168;106.796;2022-11-21T10:52:18;100602.31;;;34.61;45.17
74474;BME280;62922;-6.168;106.796;2022-11-21T10:57:11;100613.69;;;34.48;46.04
74474;BME280;62922;-6.168;106.796;2022-11-21T10:59:38;100613.25;;;34.47;46.44
74474;BME280;62922;-6.168;106.796;2022-11-21T11:04:35;100619.97;;;34.42;46.54
74474;BME280;62922;-6.168;106.796;2022-11-21T11:09:30;100619.25;;;34.45;46.37
74474;BME280;62922;-6.168;106.796;2022-11-21T11:12:22;100627.44;;;34.47;46.25
74474;BME280;62922;-6.168;106.796;2022-11-21T11:14:42;100643.34;;;34.39;46.71
74474;BME280;62922;-6.168;106.796;2022-11-21T11:17:14;100644.91;;;34.36;46.81
74474;BME280;62922;-6.168;106.796;2022-11-21T11:19:40;100643.50;;;34.30;47.83
74474;BME280;62922;-6.168;106.796;2022-11-21T11:22:26;100648.69;;;34.28;46.92
74474;BME280;62922;-6.168;106.796;2022-11-21T11:24:53;100652.81;;;34.31;47.37
74474;BME280;62922;-6.168;106.796;2022-11-21T11:27:24;100664.06;;;34.27;47.00
74474;BME280;62922;-6.168;106.796;2022-11-21T11:29:51;100668.31;;;34.21;48.21
74474;BME280;62922;-6.168;106.796;2022-11-21T11:32:17;100678.84;;;34.21;47.97
74474;BME280;62922;-6.168;106.796;2022-11-21T11:37:12;100698.69;;;34.21;47.72
74474;BME280;62922;-6.168;106.796;2022-11-21T11:44:43;100707.84;;;34.30;48.14
74474;BME280;62922;-6.168;106.796;2022-11-21T11:47:18;100701.44;;;34.45;48.53
74474;BME280;62922;-6.168;106.796;2022-11-21T11:49:51;100709.34;;;34.52;49.20
74474;BME280;62922;-6.168;106.796;2022-11-21T11:52:23;100710.28;;;34.56;48.53
74474;BME280;62922;-6.168;106.796;2022-11-21T11:54:51;100721.13;;;34.54;48.21
74474;BME280;62922;-6.168;106.796;2022-11-21T11:57:20;100716.63;;;34.53;48.64
74474;BME280;62922;-6.168;106.796;2022-11-21T11:59:50;100714.28;;;34.55;48.11
74474;BME280;62922;-6.168;106.796;2022-11-21T12:02:22;100721.13;;;34.54;48.61
74474;BME280;62922;-6.168;106.796;2022-11-21T12:04:53;100719.69;;;34.60;48.51
74474;BME280;62922;-6.168;106.796;2022-11-21T12:07:20;100716.53;;;34.49;48.11
74474;BME280;62922;-6.168;106.796;2022-11-21T12:09:51;100719.28;;;34.33;47.79
74474;BME280;62922;-6.168;106.796;2022-11-21T12:17:24;100722.03;;;34.18;48.14
74474;BME280;62922;-6.168;106.796;2022-11-21T12:19:52;100727.00;;;34.09;48.63
74474;BME280;62922;-6.168;106.796;2022-11-21T12:22:18;100722.91;;;34.06;48.49
74474;BME280;62922;-6.168;106.796;2022-11-21T12:24:44;100725.97;;;34.01;47.73
74474;BME280;62922;-6.168;106.796;2022-11-21T12:29:43;100740.59;;;34.03;48.63
74474;BME280;62922;-6.168;106.796;2022-11-21T12:37:14;100755.19;;;33.81;49.25
74474;BME280;62922;-6.168;106.796;2022-11-21T12:39:49;100761.47;;;33.87;50.00
74474;BME280;62922;-6.168;106.796;2022-11-21T12:52:21;100787.53;;;33.80;48.93
74474;BME280;62922;-6.168;106.796;2022-11-21T12:54:55;100783.50;;;33.81;49.09
74474;BME280;62922;-6.168;106.796;2022-11-21T12:57:42;100788.38;;;33.81;48.65
74474;BME280;62922;-6.168;106.796;2022-11-21T13:05:08;100805.69;;;33.79;48.56
74474;BME280;62922;-6.168;106.796;2022-11-21T13:07:35;100802.38;;;33.77;49.21
74474;BME280;62922;-6.168;106.796;2022-11-21T13:10:02;100811.72;;;33.78;48.84
74474;BME280;62922;-6.168;106.796;2022-11-21T13:15:17;100822.91;;;33.74;48.98
74474;BME280;62922;-6.168;106.796;2022-11-21T13:34:58;100837.41;;;33.73;49.40
74474;BME280;62922;-6.168;106.796;2022-11-21T13:39:52;100838.47;;;33.68;49.54
74474;BME280;62922;-6.168;106.796;2022-11-21T13:43:02;100841.66;;;33.67;49.63
74474;BME280;62922;-6.168;106.796;2022-11-21T13:47:57;100850.00;;;33.63;49.37
74474;BME280;62922;-6.168;106.796;2022-11-21T14:07:43;100836.97;;;33.38;49.09
74474;BME280;62922;-6.168;106.796;2022-11-21T14:12:40;100844.25;;;33.39;49.04
74474;BME280;62922;-6.168;106.796;2022-11-21T14:15:09;100842.56;;;33.26;48.90
74474;BME280;62922;-6.168;106.796;2022-11-21T14:20:07;100865.94;;;33.35;50.35
74474;BME280;62922;-6.168;106.796;2022-11-21T14:22:45;100850.03;;;33.30;49.75
74474;BME280;62922;-6.168;106.796;2022-11-21T14:25:16;100850.50;;;33.32;49.81
74474;BME280;62922;-6.168;106.796;2022-11-21T14:27:45;100851.22;;;33.29;49.13
74474;BME280;62922;-6.168;106.796;2022-11-21T14:30:43;100855.31;;;33.32;49.83
74474;BME280;62922;-6.168;106.796;2022-11-21T14:33:15;100864.41;;;33.25;49.63
74474;BME280;62922;-6.168;106.796;2022-11-21T14:35:42;100861.91;;;33.24;49.81